Time;durP1;ratioP1;P1;durP2;ratioP2;P2;SDS_P1;SDS_P2;PMS_P1;PMS_P2;Temp;Humidity;BMP_temperature;BMP_pressure;BME280_temperature;BME280_humidity;BME280_pressure;Samples;Min_cycle;Max_cycle;Signal;HPM_P1;HPM_P2
2023/05/09 05:09:59;;;;;;;51.75;26.88;;;17.60;76.20;;;;;;5716877;24;20949;-71
2023/05/09 05:12:25;;;;;;;49.05;25.67;;;17.70;76.60;;;;;;4802548;29;20063;-73
2023/05/09 05:14:50;;;;;;;51.30;25.20;;;17.70;77.00;;;;;;4808426;29;20062;-72
2023/05/09 05:17:17;;;;;;;53.03;25.33;;;17.70;77.50;;;;;;4808600;29;20195;-72
2023/05/09 05:19:42;;;;;;;42.65;25.02;;;17.70;77.70;;;;;;4809376;29;20051;-71
2023/05/09 05:22:08;;;;;;;53.97;25.08;;;17.80;77.70;;;;;;4808894;29;20051;-72
2023/05/09 05:24:34;;;;;;;48.92;23.27;;;17.80;78.00;;;;;;4793913;29;20054;-74
2023/05/09 05:27:00;;;;;;;48.20;24.75;;;17.80;78.00;;;;;;4826951;29;20244;-73
2023/05/09 05:29:26;;;;;;;50.10;23.95;;;17.80;78.10;;;;;;4809246;29;20181;-74
2023/05/09 05:31:51;;;;;;;54.40;23.98;;;17.80;78.20;;;;;;4809061;29;20368;-73
2023/05/09 05:34:17;;;;;;;47.58;22.90;;;17.90;78.30;;;;;;4808757;29;20050;-74
2023/05/09 05:36:43;;;;;;;52.17;22.45;;;17.90;78.30;;;;;;4808692;29;20059;-73
2023/05/09 05:39:08;;;;;;;48.78;22.45;;;17.90;78.40;;;;;;4808448;29;20078;-73
2023/05/09 05:41:34;;;;;;;48.08;23.13;;;17.90;78.40;;;;;;4793361;29;20083;-71
2023/05/09 05:44:00;;;;;;;57.72;25.45;;;17.90;78.40;;;;;;4807913;29;20059;-73
2023/05/09 05:46:26;;;;;;;43.60;23.15;;;17.90;78.40;;;;;;4808012;29;20061;-73
2023/05/09 05:48:51;;;;;;;58.17;24.58;;;17.90;78.20;;;;;;4792192;29;20059;-72
2023/05/09 05:51:17;;;;;;;57.30;25.13;;;17.90;78.20;;;;;;4808334;29;20050;-73
2023/05/09 05:53:43;;;;;;;64.50;24.02;;;17.90;78.10;;;;;;4808150;29;20086;-72
2023/05/09 05:56:09;;;;;;;61.47;24.48;;;17.90;78.10;;;;;;4805402;29;20115;-72
2023/05/09 05:58:34;;;;;;;60.55;24.88;;;17.90;78.10;;;;;;4783047;30;20498;-72
2023/05/09 06:01:01;;;;;;;66.20;24.50;;;18.00;78.70;;;;;;4807230;29;20147;-74
2023/05/09 06:03:26;;;;;;;63.45;23.63;;;18.00;78.10;;;;;;4808269;29;20055;-71
2023/05/09 06:05:52;;;;;;;51.83;31.63;;;18.00;77.90;;;;;;4808391;29;20058;-73
2023/05/09 06:08:18;;;;;;;56.15;29.42;;;18.00;77.40;;;;;;4792243;29;20155;-73
2023/05/09 06:10:44;;;;;;;53.25;28.20;;;17.90;77.10;;;;;;4807934;29;20064;-72
2023/05/09 06:13:09;;;;;;;56.05;28.13;;;17.90;77.30;;;;;;4792758;29;20066;-72
2023/05/09 06:15:35;;;;;;;57.30;28.40;;;17.90;77.30;;;;;;4808024;29;20055;-73
2023/05/09 06:18:01;;;;;;;49.28;26.17;;;17.90;77.30;;;;;;4808366;29;20050;-72
2023/05/09 06:20:26;;;;;;;46.28;27.20;;;17.90;77.20;;;;;;4792366;29;20371;-71
2023/05/09 06:22:52;;;;;;;48.13;26.45;;;17.90;77.20;;;;;;4791537;29;20371;-72
2023/05/09 06:25:18;;;;;;;43.72;25.90;;;17.90;77.00;;;;;;4807580;29;20065;-72
2023/05/09 06:27:44;;;;;;;41.85;24.48;;;17.90;77.00;;;;;;4808476;29;20047;-71
2023/05/09 06:30:10;;;;;;;44.75;26.23;;;17.90;76.90;;;;;;4807847;29;20462;-72
2023/05/09 06:32:36;;;;;;;46.78;30.90;;;17.90;76.80;;;;;;4777409;29;20090;-72
2023/05/09 06:35:01;;;;;;;51.50;34.05;;;17.90;76.50;;;;;;4807603;29;20163;-74
2023/05/09 06:37:31;;;;;;;54.75;33.00;;;17.90;76.60;;;;;;4806163;29;20058;-73
2023/05/09 06:39:57;;;;;;;49.95;34.35;;;17.90;76.60;;;;;;4792288;29;20340;-76
2023/05/09 06:42:22;;;;;;;51.78;34.00;;;17.80;76.60;;;;;;4806301;29;20116;-77
2023/05/09 06:44:48;;;;;;;48.22;31.90;;;17.80;77.40;;;;;;4803920;29;20077;-77
2023/05/09 06:47:15;;;;;;;49.22;33.42;;;17.70;77.00;;;;;;4791058;29;20061;-75
2023/05/09 06:49:41;;;;;;;51.88;33.55;;;17.70;77.20;;;;;;4793290;29;20463;-76
2023/05/09 06:52:39;;;;;;;51.00;34.17;;;17.70;77.40;;;;;;4807608;29;20424;-79
2023/05/09 06:55:06;;;;;;;47.83;34.60;;;17.70;77.40;;;;;;4790699;29;20043;-75
2023/05/09 06:57:32;;;;;;;53.08;35.88;;;17.80;77.20;;;;;;4791833;29;20415;-76
2023/05/09 06:59:58;;;;;;;50.70;35.72;;;17.80;77.30;;;;;;4806942;29;20046;-76
2023/05/09 07:02:24;;;;;;;50.33;35.15;;;17.80;77.80;;;;;;4802608;29;20408;-75
2023/05/09 07:04:50;;;;;;;45.30;32.78;;;17.80;78.10;;;;;;4803490;29;20047;-78
2023/05/09 07:07:16;;;;;;;45.17;32.92;;;17.80;78.10;;;;;;4807956;29;20131;-78
2023/05/09 07:09:42;;;;;;;46.33;32.03;;;17.90;78.10;;;;;;4807553;29;20367;-77
2023/05/09 07:12:11;;;;;;;48.42;33.15;;;17.90;77.90;;;;;;4807580;29;20066;-79
2023/05/09 07:14:37;;;;;;;43.92;30.75;;;18.00;77.80;;;;;;4807336;29;20515;-78
2023/05/09 07:17:03;;;;;;;43.25;31.00;;;18.00;77.60;;;;;;4776969;29;20050;-80
2023/05/09 07:19:29;;;;;;;41.67;30.02;;;18.00;77.30;;;;;;4807668;29;20135;-76
2023/05/09 07:21:55;;;;;;;39.65;29.17;;;18.00;77.00;;;;;;4807613;29;20057;-78
2023/05/09 07:24:21;;;;;;;41.20;29.15;;;18.10;76.90;;;;;;4807717;29;20047;-79
2023/05/09 07:26:50;;;;;;;42.03;29.50;;;18.10;76.70;;;;;;4807947;29;20090;-77
2023/05/09 07:29:17;;;;;;;40.47;29.30;;;18.10;76.60;;;;;;4804102;29;20138;-78
2023/05/09 07:31:43;;;;;;;39.08;29.08;;;18.10;76.50;;;;;;4810491;29;20129;-77
2023/05/09 07:34:09;;;;;;;39.10;28.48;;;18.10;76.40;;;;;;4802677;29;20462;-79
2023/05/09 07:36:36;;;;;;;38.00;27.45;;;18.20;76.30;;;;;;4775620;29;20090;-78
2023/05/09 07:39:03;;;;;;;36.40;26.20;;;18.20;76.10;;;;;;4780111;29;20058;-77
2023/05/09 07:41:32;;;;;;;36.95;27.40;;;18.20;76.00;;;;;;4805439;29;20066;-78
2023/05/09 07:43:58;;;;;;;49.10;34.83;;;18.20;75.70;;;;;;4793885;29;20038;-78
2023/05/09 07:46:24;;;;;;;48.67;34.20;;;18.20;75.40;;;;;;4794218;29;20051;-77
2023/05/09 07:48:50;;;;;;;44.45;32.25;;;18.20;75.50;;;;;;4794244;29;20031;-77
2023/05/09 07:51:16;;;;;;;47.83;32.70;;;18.10;75.60;;;;;;4794276;29;20034;-79
2023/05/09 07:53:43;;;;;;;43.35;31.77;;;18.10;75.80;;;;;;4778470;29;20411;-80
2023/05/09 07:56:12;;;;;;;42.55;30.70;;;18.00;76.20;;;;;;4793826;29;20483;-77
2023/05/09 07:58:38;;;;;;;42.90;31.13;;;18.00;76.50;;;;;;4809126;29;20063;-78
2023/05/09 08:01:04;;;;;;;50.03;30.45;;;18.10;76.40;;;;;;4793172;29;20038;-78
2023/05/09 08:03:30;;;;;;;48.63;31.27;;;18.10;76.40;;;;;;4781006;29;20485;-77
2023/05/09 08:05:56;;;;;;;43.22;30.77;;;18.10;76.90;;;;;;4804165;29;20131;-76
2023/05/09 08:08:23;;;;;;;45.83;29.38;;;18.00;76.20;;;;;;4794442;29;20043;-78
2023/05/09 08:10:49;;;;;;;44.05;30.48;;;18.10;76.30;;;;;;4810284;29;20070;-78
2023/05/09 08:13:15;;;;;;;49.28;28.50;;;18.00;76.20;;;;;;4810672;29;20054;-79
2023/05/09 08:15:41;;;;;;;47.28;28.83;;;18.10;76.40;;;;;;4810152;29;20066;-77
2023/05/09 08:18:07;;;;;;;44.55;28.40;;;18.00;76.30;;;;;;4797660;29;20047;-76
2023/05/09 08:20:33;;;;;;;39.65;27.08;;;18.00;76.30;;;;;;4804988;29;20054;-77
2023/05/09 08:22:59;;;;;;;46.00;27.02;;;18.00;76.50;;;;;;4807357;29;20050;-80
2023/05/09 08:25:25;;;;;;;43.63;27.85;;;18.00;76.60;;;;;;4808244;29;20459;-77
2023/05/09 08:27:50;;;;;;;42.35;26.33;;;18.00;76.50;;;;;;4810253;29;20082;-78
2023/05/09 08:30:16;;;;;;;45.28;27.63;;;18.00;76.50;;;;;;4809916;29;20085;-77
2023/05/09 08:32:42;;;;;;;44.58;27.98;;;18.00;76.50;;;;;;4809943;29;20452;-78
2023/05/09 08:35:08;;;;;;;38.45;26.58;;;18.00;76.40;;;;;;4810215;29;20204;-79
2023/05/09 08:37:35;;;;;;;38.08;26.25;;;18.00;76.40;;;;;;4810044;29;20055;-77
2023/05/09 08:40:03;;;;;;;42.92;26.50;;;18.00;76.40;;;;;;4810549;29;20054;-76
2023/05/09 08:42:30;;;;;;;37.20;26.00;;;18.00;76.50;;;;;;4808930;29;20051;-77
2023/05/09 08:44:56;;;;;;;41.53;27.33;;;18.00;76.40;;;;;;4809920;29;20382;-78
2023/05/09 08:47:23;;;;;;;41.20;25.70;;;18.00;76.50;;;;;;4808891;29;20058;-79
2023/05/09 08:49:50;;;;;;;40.35;26.63;;;18.00;76.50;;;;;;4793477;29;20090;-79
2023/05/09 08:52:16;;;;;;;39.33;25.20;;;18.00;76.60;;;;;;4792365;29;20062;-80
2023/05/09 08:54:42;;;;;;;33.00;23.65;;;18.00;76.40;;;;;;4793481;29;20051;-79
2023/05/09 08:57:08;;;;;;;37.30;25.88;;;18.00;76.40;;;;;;4793392;29;20454;-79
2023/05/09 08:59:36;;;;;;;36.35;25.05;;;18.00;76.40;;;;;;4808922;29;20062;-79
2023/05/09 09:02:06;;;;;;;37.50;25.27;;;18.00;76.40;;;;;;4809791;29;20065;-79
2023/05/09 09:04:32;;;;;;;36.95;24.73;;;18.00;76.40;;;;;;4809474;29;20059;-77
2023/05/09 09:06:58;;;;;;;34.78;25.52;;;18.00;76.40;;;;;;4808776;29;20069;-79
2023/05/09 09:09:25;;;;;;;33.42;24.13;;;18.00;76.40;;;;;;4809250;29;20064;-77
2023/05/09 09:11:52;;;;;;;36.08;24.48;;;18.10;76.40;;;;;;4792881;29;20063;-78
2023/05/09 09:14:26;;;;;;;34.08;23.98;;;18.00;76.40;;;;;;4809066;29;20424;-78
2023/05/09 09:16:54;;;;;;;32.88;24.00;;;18.00;76.30;;;;;;4809432;29;20039;-78
2023/05/09 09:19:25;;;;;;;30.13;21.60;;;18.00;76.30;;;;;;4809233;29;20054;-77
2023/05/09 09:21:53;;;;;;;31.67;23.38;;;18.00;76.30;;;;;;4808757;29;20047;-78
2023/05/09 09:24:21;;;;;;;32.28;22.55;;;18.00;76.30;;;;;;4792813;29;20090;-78
2023/05/09 09:26:49;;;;;;;32.60;21.75;;;18.00;76.20;;;;;;4808692;29;20045;-79
2023/05/09 09:29:22;;;;;;;29.00;20.95;;;18.00;76.20;;;;;;4796662;29;20055;-80
2023/05/09 09:31:52;;;;;;;31.07;21.03;;;18.00;76.00;;;;;;4800067;29;20047;-78
2023/05/09 09:34:22;;;;;;;30.80;20.95;;;18.00;76.00;;;;;;4792709;29;20050;-80
2023/05/09 09:37:11;;;;;;;28.85;19.90;;;18.00;76.10;;;;;;4805929;29;20042;-79
2023/05/09 09:39:45;;;;;;;28.27;20.30;;;18.00;76.10;;;;;;4762808;30;20383;-78
2023/05/09 09:42:12;;;;;;;28.52;20.13;;;18.00;76.10;;;;;;4789193;29;20055;-77
2023/05/09 09:44:37;;;;;;;31.05;20.52;;;18.00;76.30;;;;;;4808845;29;20043;-75
2023/05/09 09:47:08;;;;;;;35.55;20.88;;;18.00;76.40;;;;;;4792160;29;20065;-77
2023/05/09 09:49:33;;;;;;;33.15;21.30;;;18.00;76.60;;;;;;4808405;29;20058;-79
2023/05/09 09:51:59;;;;;;;25.92;18.65;;;18.00;76.80;;;;;;4808627;29;20115;-80
2023/05/09 09:54:26;;;;;;;28.50;20.50;;;18.10;77.10;;;;;;4808473;29;20142;-78
2023/05/09 09:56:53;;;;;;;28.60;19.63;;;18.10;77.40;;;;;;4808566;29;20050;-78
2023/05/09 09:59:21;;;;;;;29.25;18.83;;;18.10;77.40;;;;;;4807562;29;20051;-78
2023/05/09 10:01:52;;;;;;;26.77;18.95;;;18.10;77.50;;;;;;4806855;29;20451;-79
2023/05/09 10:04:18;;;;;;;27.38;18.38;;;18.10;77.60;;;;;;4808182;29;20062;-77
2023/05/09 10:06:55;;;;;;;26.00;17.05;;;18.10;77.50;;;;;;4792753;29;20054;-78
2023/05/09 10:09:22;;;;;;;24.90;17.58;;;18.10;77.30;;;;;;4777623;29;20069;-79
2023/05/09 10:11:51;;;;;;;22.77;16.98;;;18.20;77.10;;;;;;4789288;29;20379;-80
2023/05/09 10:14:24;;;;;;;25.70;16.27;;;18.10;76.90;;;;;;4772249;30;20056;-78
2023/05/09 10:16:53;;;;;;;22.25;15.35;;;18.20;76.90;;;;;;4756804;30;20384;-79
2023/05/09 10:19:20;;;;;;;22.58;16.48;;;18.20;76.90;;;;;;4798514;29;20101;-78
2023/05/09 10:21:53;;;;;;;24.25;16.55;;;18.20;76.90;;;;;;4808086;29;20134;-78
2023/05/09 10:24:37;;;;;;;24.38;15.90;;;18.20;77.00;;;;;;4768083;30;20059;-78
2023/05/09 10:27:08;;;;;;;21.33;15.15;;;18.20;77.00;;;;;;4756352;30;20059;-80
2023/05/09 10:29:37;;;;;;;20.10;15.40;;;18.20;77.00;;;;;;4788867;29;20058;-80
2023/05/09 10:32:15;;;;;;;21.77;15.13;;;18.20;77.10;;;;;;4808190;29;20104;-78
2023/05/09 10:34:46;;;;;;;20.35;15.25;;;18.20;77.10;;;;;;4765464;30;20051;-79
2023/05/09 10:37:13;;;;;;;18.23;14.25;;;18.20;77.30;;;;;;4775541;30;20054;-80
2023/05/09 10:39:42;;;;;;;18.75;13.27;;;18.20;77.20;;;;;;4779489;30;20054;-78
2023/05/09 10:42:28;;;;;;;22.08;14.30;;;18.20;77.20;;;;;;4759062;30;20112;-78
2023/05/09 10:44:55;;;;;;;21.00;14.23;;;18.30;77.00;;;;;;4759012;30;20093;-77
2023/05/09 10:55:04;;;;;;;19.08;13.30;;;18.30;76.40;;;;;;4715972;30;20079;-78
2023/05/09 10:57:31;;;;;;;19.27;12.18;;;18.30;76.60;;;;;;4704141;30;20045;-79
2023/05/09 10:59:59;;;;;;;17.17;12.40;;;18.30;76.80;;;;;;4716816;30;20053;-79
2023/05/09 11:21:26;;;;;;;16.63;11.50;;;18.30;76.10;;;;;;4649415;30;20068;-78
2023/05/09 11:32:30;;;;;;;;;;;;;;;;;;;;;
2023/05/09 11:42:16;;;;;;;15.50;11.75;;;17.90;77.30;;;;;;4795928;29;20055;-78
2023/05/09 11:44:58;;;;;;;14.13;12.63;;;17.80;77.60;;;;;;4779541;29;20068;-79
2023/05/09 11:47:40;;;;;;;17.35;12.60;;;17.80;77.70;;;;;;4779897;29;20047;-79
2023/05/09 11:50:56;;;;;;;14.65;11.93;;;17.80;77.80;;;;;;4794839;29;20046;-78
2023/05/09 11:53:43;;;;;;;;;;;;;;;;;;;;;
2023/05/09 12:44:21;;;;;;;11.25;8.63;;;18.00;77.30;;;;;;4764114;30;20126;-80
2023/05/09 12:47:13;;;;;;;10.02;7.70;;;18.00;78.10;;;;;;4775751;30;20063;-78
2023/05/09 12:49:53;;;;;;;9.70;8.45;;;17.90;78.00;;;;;;4759108;30;20054;-78
2023/05/09 12:52:21;;;;;;;11.75;7.80;;;18.00;78.00;;;;;;4759996;30;20082;-77
2023/05/09 12:54:47;;;;;;;9.35;7.82;;;17.90;77.80;;;;;;4760581;30;20085;-78
2023/05/09 12:57:24;;;;;;;11.68;7.72;;;18.00;78.00;;;;;;4760559;30;20127;-78
2023/05/09 13:03:41;;;;;;;10.95;7.75;;;18.00;78.60;;;;;;4735215;30;20478;-79
2023/05/09 13:06:12;;;;;;;12.57;6.50;;;18.00;78.40;;;;;;4744040;30;20119;-80
2023/05/09 13:08:38;;;;;;;17.75;7.32;;;18.00;78.30;;;;;;4757613;30;20399;-79
2023/05/09 13:11:04;;;;;;;10.30;6.85;;;18.00;78.30;;;;;;4789210;30;20127;-79
2023/05/09 13:13:30;;;;;;;12.32;7.13;;;18.00;78.30;;;;;;4785031;30;20059;-78
2023/05/09 13:15:56;;;;;;;8.82;6.53;;;18.00;78.30;;;;;;4775052;30;20087;-78
2023/05/09 13:18:23;;;;;;;11.38;6.30;;;18.00;78.20;;;;;;4761134;30;20505;-78
2023/05/09 13:20:50;;;;;;;13.45;6.18;;;18.00;78.10;;;;;;4785305;30;20135;-79
2023/05/09 13:23:16;;;;;;;12.15;6.40;;;18.00;78.10;;;;;;4784711;30;20058;-79
2023/05/09 13:25:42;;;;;;;10.00;5.75;;;18.00;78.20;;;;;;4756700;30;20051;-78
2023/05/09 13:28:07;;;;;;;8.25;5.10;;;17.90;78.10;;;;;;4742331;30;20054;-79
2023/05/09 13:30:33;;;;;;;6.32;4.90;;;18.00;78.10;;;;;;4757597;30;20055;-79
2023/05/09 13:32:59;;;;;;;9.05;5.25;;;18.00;78.10;;;;;;4787555;30;20039;-78
2023/05/09 13:35:27;;;;;;;8.48;4.35;;;18.00;78.00;;;;;;4770423;30;20062;-77
2023/05/09 13:37:53;;;;;;;9.18;4.30;;;17.90;78.00;;;;;;4787685;30;20352;-79
2023/05/09 13:40:19;;;;;;;8.82;4.07;;;18.00;78.10;;;;;;4785971;29;20119;-78
2023/05/09 13:42:47;;;;;;;15.35;5.03;;;18.00;78.10;;;;;;4808908;29;20093;-78
2023/05/09 13:45:13;;;;;;;10.48;4.18;;;18.00;78.20;;;;;;4805373;29;20066;-79
2023/05/09 13:47:39;;;;;;;15.65;4.32;;;17.80;78.10;;;;;;4777961;29;20046;-80
2023/05/09 13:50:05;;;;;;;5.43;3.50;;;18.00;78.20;;;;;;4792725;29;20065;-79
2023/05/09 13:52:31;;;;;;;9.75;3.53;;;18.00;78.20;;;;;;4792692;29;20451;-76
2023/05/09 13:54:57;;;;;;;6.45;3.03;;;17.90;78.30;;;;;;4808445;29;20042;-79
2023/05/09 13:57:23;;;;;;;7.32;2.90;;;18.00;78.10;;;;;;4777228;29;20051;-78
2023/05/09 13:59:48;;;;;;;6.82;2.70;;;17.90;77.90;;;;;;4792498;29;20391;-79
2023/05/09 14:02:15;;;;;;;6.30;2.70;;;17.80;78.00;;;;;;4777400;29;20058;-79
2023/05/09 14:04:40;;;;;;;4.32;3.33;;;17.80;78.10;;;;;;4777196;29;20054;-80
2023/05/09 14:07:08;;;;;;;5.00;2.80;;;17.70;78.30;;;;;;4792645;29;20043;-79
2023/05/09 14:09:38;;;;;;;6.15;2.75;;;17.70;78.40;;;;;;4777303;29;20051;-79
2023/05/09 14:12:05;;;;;;;5.10;2.78;;;17.60;78.50;;;;;;4792688;29;20530;-77
2023/05/09 14:14:30;;;;;;;9.55;2.97;;;17.60;78.90;;;;;;4792194;29;20125;-79
2023/05/09 14:16:57;;;;;;;3.38;2.42;;;17.50;78.90;;;;;;4792396;29;20203;-79
2023/05/09 14:19:25;;;;;;;4.25;2.33;;;17.50;79.10;;;;;;4792487;29;20054;-78
2023/05/09 14:21:51;;;;;;;2.67;1.83;;;17.60;79.10;;;;;;4808239;29;20058;-79
2023/05/09 14:24:16;;;;;;;7.72;2.47;;;17.60;79.10;;;;;;4791871;29;20065;-79
2023/05/09 14:26:42;;;;;;;3.03;2.10;;;17.60;79.00;;;;;;4792014;29;20055;-78
2023/05/09 14:29:08;;;;;;;5.20;2.20;;;17.60;78.90;;;;;;4792732;29;20055;-80
2023/05/09 14:31:34;;;;;;;6.35;2.35;;;17.70;78.90;;;;;;4792448;29;20042;-78
2023/05/09 14:34:00;;;;;;;14.90;3.10;;;17.70;78.80;;;;;;4791787;29;20062;-79
2023/05/09 14:36:26;;;;;;;12.75;3.15;;;17.70;78.50;;;;;;4798944;29;20062;-78
2023/05/09 14:38:52;;;;;;;7.97;3.10;;;17.70;78.50;;;;;;4791919;29;20055;-78
2023/05/09 14:41:18;;;;;;;7.63;3.00;;;17.80;78.80;;;;;;4790546;29;20066;-79
2023/05/09 14:43:44;;;;;;;7.38;3.70;;;17.70;79.00;;;;;;4807594;29;20066;-79
2023/05/09 14:46:10;;;;;;;13.63;4.25;;;17.70;79.20;;;;;;4805821;29;20090;-79
2023/05/09 14:48:36;;;;;;;9.93;3.20;;;17.70;79.30;;;;;;4807278;29;20058;-79
2023/05/09 14:51:04;;;;;;;7.22;3.65;;;17.60;79.20;;;;;;4797207;29;20166;-81
2023/05/09 14:53:30;;;;;;;7.22;3.08;;;17.60;79.40;;;;;;4789305;29;20059;-79
2023/05/09 14:55:56;;;;;;;4.40;2.70;;;17.60;79.50;;;;;;4806945;29;20039;-79
2023/05/09 14:58:22;;;;;;;3.00;2.70;;;17.60;79.50;;;;;;4791412;29;20047;-79
2023/05/09 15:00:48;;;;;;;4.65;2.65;;;17.60;79.50;;;;;;4775625;29;20043;-78
2023/05/09 15:03:18;;;;;;;6.00;3.10;;;17.50;79.50;;;;;;4788116;29;20137;-79
2023/05/09 15:05:44;;;;;;;5.32;3.65;;;17.50;79.70;;;;;;4805114;29;20047;-80
2023/05/09 15:08:10;;;;;;;3.85;3.05;;;17.50;79.70;;;;;;4776432;29;20531;-78
2023/05/09 15:10:36;;;;;;;4.95;3.45;;;17.50;79.70;;;;;;4775852;29;20187;-79
2023/05/09 15:13:02;;;;;;;5.45;3.20;;;17.50;79.70;;;;;;4774656;29;20125;-80
2023/05/09 15:15:28;;;;;;;4.22;2.97;;;17.50;79.80;;;;;;4774967;29;20062;-79
2023/05/09 15:21:34;;;;;;;4.88;3.08;;;17.50;80.00;;;;;;4805692;29;20054;-74
2023/05/09 15:24:01;;;;;;;3.38;2.97;;;17.40;80.20;;;;;;4807294;29;20111;-80
2023/05/09 15:26:29;;;;;;;4.63;3.42;;;17.40;80.40;;;;;;4765700;30;20108;-79
2023/05/09 15:28:59;;;;;;;6.82;3.33;;;17.40;80.50;;;;;;4789491;30;20054;-80
2023/05/09 15:31:31;;;;;;;8.13;3.65;;;17.40;80.80;;;;;;4783868;29;20090;-78
2023/05/09 15:34:00;;;;;;;7.55;3.42;;;17.40;80.80;;;;;;4789857;29;20046;-82
2023/05/09 15:36:28;;;;;;;8.02;2.92;;;17.50;81.10;;;;;;4774223;29;20097;-78
2023/05/09 15:38:54;;;;;;;11.05;3.13;;;17.50;81.10;;;;;;4796164;29;20049;-79
2023/05/09 15:41:35;;;;;;;9.52;2.95;;;17.50;81.20;;;;;;4798678;29;20138;-81
2023/05/09 15:44:00;;;;;;;9.80;2.63;;;17.60;81.40;;;;;;4804669;29;20370;-79
2023/05/09 15:46:27;;;;;;;9.70;2.90;;;17.60;81.70;;;;;;4806579;29;20130;-79
2023/05/09 15:48:52;;;;;;;11.25;2.90;;;17.60;81.50;;;;;;4793070;29;20123;-77
2023/05/09 15:51:18;;;;;;;8.02;2.65;;;17.70;81.60;;;;;;4810582;29;20054;-79
2023/05/09 15:53:44;;;;;;;9.50;2.30;;;17.70;81.70;;;;;;4810150;29;20084;-78
2023/05/09 15:56:10;;;;;;;8.80;2.63;;;17.70;81.70;;;;;;4794806;29;20470;-73
2023/05/09 15:58:39;;;;;;;15.45;2.67;;;17.80;81.80;;;;;;4794913;29;20428;-77
2023/05/09 16:01:06;;;;;;;12.25;2.22;;;17.80;81.80;;;;;;4793534;29;20059;-80
2023/05/09 16:03:33;;;;;;;6.57;2.20;;;17.90;81.80;;;;;;4777457;29;20055;-78
2023/05/09 16:05:59;;;;;;;9.55;1.95;;;17.90;81.60;;;;;;4794331;29;20471;-79
2023/05/09 16:08:25;;;;;;;7.78;2.22;;;17.90;81.50;;;;;;4779607;29;20051;-78
2023/05/09 16:10:51;;;;;;;14.57;2.40;;;17.90;81.50;;;;;;4779469;29;20130;-81
2023/05/09 16:13:16;;;;;;;14.68;3.05;;;17.90;81.50;;;;;;4793088;29;20039;-78
2023/05/09 16:15:44;;;;;;;13.18;3.28;;;17.90;81.50;;;;;;4792855;29;20050;-78
2023/05/09 16:18:09;;;;;;;14.15;3.03;;;17.90;81.50;;;;;;4794193;29;20054;-80
2023/05/09 16:20:35;;;;;;;8.52;2.25;;;17.90;81.50;;;;;;4790151;30;20039;-80
2023/05/09 16:23:02;;;;;;;23.40;3.28;;;18.00;81.40;;;;;;4787080;29;20035;-79
2023/05/09 16:25:27;;;;;;;16.50;3.30;;;18.00;81.40;;;;;;4785400;29;20051;-80
2023/05/09 16:27:53;;;;;;;16.67;3.00;;;18.00;81.40;;;;;;4788008;29;20082;-81
2023/05/09 16:30:19;;;;;;;17.88;2.90;;;18.00;81.40;;;;;;4794762;29;20058;-79
2023/05/09 16:32:45;;;;;;;22.02;4.07;;;18.00;81.40;;;;;;4778882;29;20070;-76
2023/05/09 16:35:11;;;;;;;15.88;3.50;;;18.00;81.30;;;;;;4809949;29;20059;-79
2023/05/09 16:37:37;;;;;;;13.95;3.50;;;18.00;81.20;;;;;;4809723;29;20362;-80
2023/05/09 16:40:03;;;;;;;21.42;3.75;;;18.10;81.10;;;;;;4809326;29;20066;-79
2023/05/09 16:42:29;;;;;;;20.63;3.33;;;18.10;80.90;;;;;;4809368;29;20127;-77
2023/05/09 16:44:56;;;;;;;11.98;2.60;;;18.10;80.80;;;;;;4809988;29;20142;-77
2023/05/09 16:47:21;;;;;;;22.10;3.33;;;18.10;80.60;;;;;;4809458;29;20463;-81
2023/05/09 16:49:47;;;;;;;11.95;2.42;;;18.10;80.50;;;;;;4793838;29;20069;-79
2023/05/09 16:52:14;;;;;;;14.95;2.78;;;18.10;80.40;;;;;;4809519;29;20054;-79
2023/05/09 16:54:42;;;;;;;12.88;2.80;;;18.10;80.20;;;;;;4793870;29;20536;-80
2023/05/09 16:57:08;;;;;;;14.32;2.58;;;18.10;80.10;;;;;;4808951;29;20066;-80
2023/05/09 16:59:34;;;;;;;15.02;2.50;;;18.10;79.90;;;;;;4802370;29;20035;-80
2023/05/09 17:02:00;;;;;;;16.88;4.10;;;18.10;79.50;;;;;;4791474;29;20127;-77
2023/05/09 17:04:26;;;;;;;17.55;3.13;;;18.10;79.30;;;;;;4809231;29;20119;-80
2023/05/09 17:06:52;;;;;;;12.93;3.20;;;18.00;79.40;;;;;;4778416;29;20341;-77
2023/05/09 17:09:18;;;;;;;9.10;2.80;;;18.00;79.60;;;;;;4778391;29;20066;-78
2023/05/09 17:11:43;;;;;;;14.20;2.78;;;18.00;79.50;;;;;;4793130;29;20455;-75
2023/05/09 17:14:09;;;;;;;10.50;2.80;;;18.00;79.40;;;;;;4809309;29;20053;-78
2023/05/09 17:16:35;;;;;;;9.75;3.28;;;18.00;79.30;;;;;;4809246;29;20211;-80
2023/05/09 17:19:01;;;;;;;10.98;2.63;;;18.00;79.30;;;;;;4808228;29;20596;-79
2023/05/09 17:21:27;;;;;;;9.13;2.78;;;18.00;80.00;;;;;;4793448;29;20451;-79
2023/05/09 17:23:52;;;;;;;10.95;2.50;;;18.10;79.40;;;;;;4808820;29;20155;-80
2023/05/09 17:26:22;;;;;;;10.02;2.35;;;18.10;79.30;;;;;;4809150;29;20108;-77
2023/05/09 17:28:48;;;;;;;13.95;2.50;;;18.10;79.20;;;;;;4808217;29;20081;-80
2023/05/09 17:31:14;;;;;;;12.80;3.08;;;18.00;79.10;;;;;;4808448;29;20547;-77
2023/05/09 17:33:42;;;;;;;11.55;2.08;;;18.10;79.10;;;;;;4792879;29;20360;-80
2023/05/09 17:36:08;;;;;;;13.00;2.70;;;18.10;79.10;;;;;;4778292;29;20069;-76
2023/05/09 17:38:34;;;;;;;12.05;2.33;;;18.10;79.10;;;;;;4808524;29;20055;-79
2023/05/09 17:41:00;;;;;;;11.52;2.28;;;18.10;79.00;;;;;;4792394;29;20070;-79
2023/05/09 17:43:27;;;;;;;13.85;2.40;;;18.10;79.00;;;;;;4808865;29;20047;-80
2023/05/09 17:45:53;;;;;;;7.25;1.73;;;18.10;79.00;;;;;;4808818;29;20126;-79
2023/05/09 17:48:19;;;;;;;11.55;2.25;;;18.10;78.90;;;;;;4808339;29;20150;-78
2023/05/09 17:50:48;;;;;;;7.80;1.98;;;18.10;78.90;;;;;;4792424;29;20058;-77
2023/05/09 17:53:13;;;;;;;8.93;1.52;;;18.10;78.80;;;;;;4808606;29;20062;-78
2023/05/09 17:55:40;;;;;;;8.40;1.80;;;18.10;78.70;;;;;;4793226;29;20443;-78
2023/05/09 17:58:06;;;;;;;4.28;1.30;;;18.10;78.70;;;;;;4808692;29;20112;-81
2023/05/09 18:00:33;;;;;;;8.70;1.83;;;18.10;78.70;;;;;;4808243;29;20055;-76
2023/05/09 18:02:59;;;;;;;7.80;1.80;;;18.10;78.70;;;;;;4808537;29;20054;-80
2023/05/09 18:05:26;;;;;;;5.57;1.50;;;18.10;78.60;;;;;;4807784;29;20051;-74
2023/05/09 19:13:27;;;;;;;4.25;2.63;;;17.90;78.30;;;;;;4764518;29;20047;-73
2023/05/09 19:15:53;;;;;;;5.13;3.05;;;17.80;78.50;;;;;;4761306;30;20349;-72
2023/05/09 19:18:18;;;;;;;4.28;2.55;;;17.80;79.00;;;;;;4771685;30;20063;-74
2023/05/09 19:20:44;;;;;;;3.22;2.95;;;17.70;79.30;;;;;;4772010;30;20117;-73
2023/05/09 19:23:10;;;;;;;4.57;2.90;;;17.60;79.50;;;;;;4772609;30;20371;-74
2023/05/09 19:25:36;;;;;;;3.10;2.83;;;17.60;79.80;;;;;;4774977;30;20051;-72
2023/05/09 19:28:02;;;;;;;3.15;2.70;;;17.50;80.00;;;;;;4775117;30;20059;-73
2023/05/09 19:30:28;;;;;;;4.05;2.70;;;17.50;80.20;;;;;;4775304;30;20063;-72
2023/05/09 19:32:54;;;;;;;3.40;2.72;;;17.40;80.50;;;;;;4775845;30;20368;-75
2023/05/09 19:35:20;;;;;;;3.33;2.75;;;17.40;81.40;;;;;;4775375;30;20059;-73
2023/05/09 19:37:45;;;;;;;4.68;3.15;;;17.30;80.70;;;;;;4775122;30;20094;-72
2023/05/09 19:40:11;;;;;;;4.30;3.42;;;17.30;81.00;;;;;;4773700;30;20143;-71
2023/05/09 19:42:37;;;;;;;3.70;3.25;;;17.30;81.00;;;;;;4772690;30;20448;-72
2023/05/09 19:45:03;;;;;;;4.43;2.92;;;17.20;80.90;;;;;;4774040;30;20131;-72
2023/05/09 19:47:29;;;;;;;3.58;3.28;;;17.20;81.10;;;;;;4774891;30;20048;-71
2023/05/09 19:49:55;;;;;;;4.10;3.75;;;17.10;81.10;;;;;;4774665;30;20135;-73
2023/05/09 19:52:22;;;;;;;4.30;3.90;;;17.10;81.10;;;;;;4775097;30;20062;-73
2023/05/09 19:54:54;;;;;;;4.22;3.83;;;17.10;81.20;;;;;;4772499;30;20568;-73
2023/05/09 19:57:23;;;;;;;4.63;4.22;;;17.10;81.30;;;;;;4773885;30;20131;-72
2023/05/09 19:59:49;;;;;;;4.85;4.45;;;17.00;81.40;;;;;;4774239;30;20131;-71
2023/05/09 20:02:15;;;;;;;4.50;4.07;;;17.00;81.40;;;;;;4773954;30;20489;-72
2023/05/09 20:04:48;;;;;;;4.78;4.30;;;16.90;81.50;;;;;;4773874;30;20052;-73
2023/05/09 20:07:15;;;;;;;4.90;4.45;;;16.90;81.60;;;;;;4773608;30;20094;-73
2023/05/09 20:09:41;;;;;;;6.10;5.10;;;16.90;81.60;;;;;;4774092;30;20059;-72
2023/05/09 20:12:08;;;;;;;5.57;5.03;;;16.90;81.70;;;;;;4774043;30;20062;-71
2023/05/09 20:14:34;;;;;;;6.30;5.72;;;16.90;81.80;;;;;;4773276;30;20152;-71
2023/05/09 20:17:00;;;;;;;6.13;5.43;;;16.90;81.80;;;;;;4774133;30;20067;-72
2023/05/09 20:19:26;;;;;;;6.25;5.60;;;16.90;81.90;;;;;;4774080;30;20051;-71
2023/05/09 20:21:52;;;;;;;7.00;6.30;;;16.80;81.80;;;;;;4757567;30;20516;-71
2023/05/09 20:24:18;;;;;;;6.38;5.80;;;16.80;81.90;;;;;;4773531;30;20081;-73
2023/05/09 20:26:44;;;;;;;7.10;6.40;;;16.80;81.90;;;;;;4773838;30;20047;-72
2023/05/09 20:29:10;;;;;;;11.07;6.40;;;16.70;82.20;;;;;;4773904;30;20360;-73
2023/05/09 20:31:36;;;;;;;8.18;7.38;;;16.70;82.30;;;;;;4755232;30;20083;-73